EZY457 LIRN-LDSP
Flight info
| Callsign | EZY457 |
|---|---|
| Flight time | 0h 39m |
| Altitude | 30000 |
| Route | BEDPI DCT MOLUX DCT RILIM |
| Aircraft | A320/M-SDE3FGHIRWY/LB1 |
Departure
| Time | 2026-04-27 07:10 |
|---|---|
| Airport | Naples International Airport (LIRN) |
Arrival
| Time | 2026-04-27 07:50 |
|---|---|
| Airport | Split Saint Jerome Airport (LDSP) |
| Time | Latitude | Longitude | Altitude | Speed | Heading |
|---|---|---|---|---|---|
| 2026-04-27 06:55 | 40.87880 | 14.28284 | 291 ft | 0 kts | 187° |
| 2026-04-27 07:04 | 40.87882 | 14.28285 | 291 ft | 2 kts | 187° |
| 2026-04-27 07:04 | 40.87908 | 14.28289 | 292 ft | 4 kts | 187° |
| 2026-04-27 07:04 | 40.87929 | 14.28293 | 293 ft | 4 kts | 200° |
| 2026-04-27 07:04 | 40.87945 | 14.28310 | 295 ft | 4 kts | 261° |
| 2026-04-27 07:05 | 40.87944 | 14.28343 | 292 ft | 4 kts | 277° |
| 2026-04-27 07:05 | 40.87944 | 14.28351 | 294 ft | 0 kts | 277° |
| 2026-04-27 07:07 | 40.87949 | 14.28291 | 290 ft | 12 kts | 277° |
| 2026-04-27 07:08 | 40.87958 | 14.28198 | 293 ft | 9 kts | 278° |
| 2026-04-27 07:08 | 40.87961 | 14.28130 | 295 ft | 6 kts | 256° |
| 2026-04-27 07:08 | 40.87910 | 14.28041 | 298 ft | 20 kts | 231° |
| 2026-04-27 07:08 | 40.87856 | 14.27902 | 300 ft | 14 kts | 292° |
| 2026-04-27 07:09 | 40.87931 | 14.27815 | 298 ft | 15 kts | 321° |
| 2026-04-27 07:09 | 40.87991 | 14.27795 | 299 ft | 14 kts | 28° |
| 2026-04-27 07:09 | 40.88054 | 14.27913 | 297 ft | 19 kts | 58° |
| 2026-04-27 07:09 | 40.88233 | 14.28291 | 286 ft | 88 kts | 58° |
| 2026-04-27 07:10 | 40.88682 | 14.29237 | 265 ft | 153 kts | 58° |
| 2026-04-27 07:10 | 40.89302 | 14.30530 | 648 ft | 173 kts | 57° |
| 2026-04-27 07:10 | 40.89972 | 14.31925 | 1302 ft | 184 kts | 57° |
| 2026-04-27 07:10 | 40.90658 | 14.33350 | 2031 ft | 183 kts | 58° |
| 2026-04-27 07:11 | 40.91320 | 14.34764 | 2861 ft | 179 kts | 58° |
| 2026-04-27 07:11 | 40.91964 | 14.36150 | 3643 ft | 175 kts | 58° |
| 2026-04-27 07:11 | 40.92596 | 14.37505 | 4363 ft | 172 kts | 59° |
| 2026-04-27 07:11 | 40.93244 | 14.38894 | 4867 ft | 187 kts | 59° |
| 2026-04-27 07:12 | 40.93963 | 14.40441 | 5188 ft | 209 kts | 59° |
| 2026-04-27 07:12 | 40.94768 | 14.42177 | 5508 ft | 234 kts | 59° |
| 2026-04-27 07:12 | 40.95670 | 14.44109 | 5954 ft | 259 kts | 59° |
| 2026-04-27 07:12 | 40.96651 | 14.46201 | 6633 ft | 274 kts | 59° |
| 2026-04-27 07:13 | 40.97666 | 14.48366 | 7502 ft | 279 kts | 59° |
| 2026-04-27 07:13 | 40.98702 | 14.50571 | 8417 ft | 285 kts | 58° |
| 2026-04-27 07:13 | 40.99757 | 14.52817 | 9335 ft | 289 kts | 58° |
| 2026-04-27 07:13 | 41.00826 | 14.55097 | 10233 ft | 294 kts | 57° |
| 2026-04-27 07:14 | 41.01922 | 14.57443 | 10840 ft | 310 kts | 58° |
| 2026-04-27 07:14 | 41.03100 | 14.59962 | 11154 ft | 333 kts | 57° |
| 2026-04-27 07:14 | 41.04364 | 14.62657 | 11488 ft | 354 kts | 56° |
| 2026-04-27 07:14 | 41.05942 | 14.65197 | 12162 ft | 360 kts | 43° |
| 2026-04-27 07:15 | 41.07934 | 14.67226 | 12928 ft | 363 kts | 30° |
| 2026-04-27 07:15 | 41.10215 | 14.68671 | 13721 ft | 366 kts | 21° |
| 2026-04-27 07:15 | 41.12571 | 14.69987 | 14456 ft | 369 kts | 21° |
| 2026-04-27 07:15 | 41.14949 | 14.71313 | 15152 ft | 372 kts | 21° |
| 2026-04-27 07:16 | 41.17342 | 14.72650 | 15866 ft | 375 kts | 21° |
| 2026-04-27 07:16 | 41.19754 | 14.73999 | 16580 ft | 378 kts | 21° |
| 2026-04-27 07:16 | 41.22182 | 14.75359 | 17292 ft | 381 kts | 21° |
| 2026-04-27 07:16 | 41.24634 | 14.76736 | 18005 ft | 384 kts | 21° |
| 2026-04-27 07:17 | 41.27077 | 14.78191 | 18668 ft | 388 kts | 23° |
| 2026-04-27 07:17 | 41.29486 | 14.79853 | 19253 ft | 393 kts | 30° |
| 2026-04-27 07:17 | 41.31654 | 14.82114 | 19836 ft | 400 kts | 41° |
| 2026-04-27 07:17 | 41.33559 | 14.84842 | 20426 ft | 405 kts | 46° |
| 2026-04-27 07:18 | 41.35455 | 14.87626 | 21020 ft | 408 kts | 45° |
| 2026-04-27 07:18 | 41.37385 | 14.90411 | 21589 ft | 411 kts | 45° |
| 2026-04-27 07:18 | 41.39339 | 14.93208 | 22134 ft | 414 kts | 44° |
| 2026-04-27 07:18 | 41.41315 | 14.96030 | 22665 ft | 418 kts | 44° |
| 2026-04-27 07:19 | 41.43304 | 14.98880 | 23199 ft | 421 kts | 45° |
| 2026-04-27 07:19 | 41.45299 | 15.01752 | 23737 ft | 424 kts | 45° |
| 2026-04-27 07:19 | 41.47301 | 15.04649 | 24159 ft | 426 kts | 45° |
| 2026-04-27 07:19 | 41.49314 | 15.07575 | 24563 ft | 429 kts | 45° |
| 2026-04-27 07:20 | 41.51310 | 15.10481 | 24952 ft | 432 kts | 45° |
| 2026-04-27 07:20 | 41.53348 | 15.13444 | 25339 ft | 434 kts | 45° |
| 2026-04-27 07:20 | 41.55398 | 15.16422 | 25728 ft | 437 kts | 45° |
| 2026-04-27 07:20 | 41.57459 | 15.19418 | 26105 ft | 440 kts | 45° |
| 2026-04-27 07:21 | 41.59538 | 15.22443 | 26470 ft | 442 kts | 45° |
| 2026-04-27 07:21 | 41.61622 | 15.25478 | 26830 ft | 445 kts | 45° |
| 2026-04-27 07:21 | 41.63720 | 15.28538 | 27182 ft | 447 kts | 45° |
| 2026-04-27 07:21 | 41.65827 | 15.31614 | 27528 ft | 450 kts | 45° |
| 2026-04-27 07:22 | 41.67947 | 15.34710 | 27858 ft | 452 kts | 45° |
| 2026-04-27 07:22 | 41.70077 | 15.37822 | 28181 ft | 455 kts | 45° |
| 2026-04-27 07:22 | 41.72218 | 15.40958 | 28495 ft | 457 kts | 45° |
| 2026-04-27 07:22 | 41.74368 | 15.44113 | 28799 ft | 460 kts | 45° |
| 2026-04-27 07:23 | 41.76524 | 15.47283 | 29090 ft | 462 kts | 45° |
| 2026-04-27 07:23 | 41.78692 | 15.50472 | 29415 ft | 464 kts | 45° |
| 2026-04-27 07:23 | 41.80867 | 15.53668 | 29706 ft | 466 kts | 45° |
| 2026-04-27 07:23 | 41.83057 | 15.56887 | 29974 ft | 468 kts | 45° |
| 2026-04-27 07:24 | 41.85245 | 15.60114 | 30170 ft | 468 kts | 45° |
| 2026-04-27 07:24 | 41.89564 | 15.66508 | 30215 ft | 459 kts | 45° |
| 2026-04-27 07:25 | 41.93847 | 15.72852 | 30231 ft | 458 kts | 45° |
| 2026-04-27 07:25 | 41.98133 | 15.79207 | 30220 ft | 459 kts | 45° |
| 2026-04-27 07:26 | 42.02414 | 15.85572 | 30213 ft | 459 kts | 45° |
| 2026-04-27 07:26 | 42.06698 | 15.91948 | 30199 ft | 459 kts | 45° |
| 2026-04-27 07:27 | 42.10975 | 15.98333 | 30167 ft | 459 kts | 45° |
| 2026-04-27 07:27 | 42.15249 | 16.04730 | 30162 ft | 459 kts | 45° |
| 2026-04-27 07:28 | 42.19519 | 16.11131 | 30162 ft | 459 kts | 45° |
| 2026-04-27 07:28 | 42.23786 | 16.17538 | 30158 ft | 459 kts | 45° |
| 2026-04-27 07:29 | 42.28050 | 16.23954 | 30164 ft | 459 kts | 45° |
| 2026-04-27 07:29 | 42.32313 | 16.30390 | 30154 ft | 460 kts | 45° |
| 2026-04-27 07:30 | 42.36576 | 16.36847 | 30156 ft | 460 kts | 45° |
| 2026-04-27 07:30 | 42.40833 | 16.43302 | 30161 ft | 460 kts | 45° |
| 2026-04-27 07:30 | 42.42961 | 16.46530 | 29507 ft | 460 kts | 45° |
| 2026-04-27 07:31 | 42.45089 | 16.49762 | 28609 ft | 458 kts | 45° |
| 2026-04-27 07:31 | 42.47191 | 16.52962 | 27847 ft | 452 kts | 46° |
| 2026-04-27 07:31 | 42.49241 | 16.56093 | 27060 ft | 449 kts | 46° |
| 2026-04-27 07:31 | 42.51333 | 16.59292 | 26250 ft | 446 kts | 46° |
| 2026-04-27 07:32 | 42.53356 | 16.62384 | 25476 ft | 443 kts | 46° |
| 2026-04-27 07:32 | 42.55395 | 16.65499 | 24704 ft | 441 kts | 46° |
| 2026-04-27 07:32 | 42.57424 | 16.68603 | 23943 ft | 438 kts | 46° |
| 2026-04-27 07:32 | 42.59442 | 16.71688 | 23120 ft | 435 kts | 46° |
| 2026-04-27 07:33 | 42.61690 | 16.74367 | 22391 ft | 427 kts | 31° |
| 2026-04-27 07:33 | 42.64338 | 16.76080 | 21719 ft | 419 kts | 15° |
| 2026-04-27 07:33 | 42.67169 | 16.76737 | 21075 ft | 411 kts | 0° |
| 2026-04-27 07:33 | 42.69991 | 16.76355 | 20426 ft | 406 kts | 345° |
| 2026-04-27 07:34 | 42.72602 | 16.74990 | 19822 ft | 401 kts | 330° |
| 2026-04-27 07:34 | 42.74910 | 16.72890 | 19242 ft | 398 kts | 324° |
| 2026-04-27 07:34 | 42.77156 | 16.70714 | 18672 ft | 395 kts | 324° |
| 2026-04-27 07:34 | 42.79386 | 16.68546 | 18069 ft | 392 kts | 324° |
| 2026-04-27 07:35 | 42.81593 | 16.66405 | 17540 ft | 387 kts | 324° |
| 2026-04-27 07:35 | 42.83780 | 16.64289 | 17003 ft | 383 kts | 324° |
| 2026-04-27 07:35 | 42.85941 | 16.62206 | 16470 ft | 379 kts | 324° |
| 2026-04-27 07:35 | 42.88088 | 16.60139 | 15928 ft | 376 kts | 324° |
| 2026-04-27 07:36 | 42.90209 | 16.58091 | 15375 ft | 373 kts | 324° |
| 2026-04-27 07:36 | 42.92322 | 16.56046 | 14817 ft | 371 kts | 324° |
| 2026-04-27 07:36 | 42.94420 | 16.54010 | 14241 ft | 369 kts | 324° |
| 2026-04-27 07:36 | 42.96509 | 16.51978 | 13621 ft | 368 kts | 324° |
| 2026-04-27 07:37 | 42.98565 | 16.49979 | 13398 ft | 355 kts | 324° |
| 2026-04-27 07:37 | 43.00539 | 16.48055 | 13256 ft | 341 kts | 324° |
| 2026-04-27 07:37 | 43.02434 | 16.46210 | 13122 ft | 328 kts | 324° |
| 2026-04-27 07:37 | 43.04259 | 16.44434 | 12991 ft | 316 kts | 324° |
| 2026-04-27 07:38 | 43.06020 | 16.42720 | 12825 ft | 306 kts | 324° |
| 2026-04-27 07:38 | 43.07742 | 16.41043 | 12538 ft | 301 kts | 324° |
| 2026-04-27 07:38 | 43.09439 | 16.39391 | 12282 ft | 298 kts | 324° |
| 2026-04-27 07:38 | 43.11125 | 16.37744 | 12027 ft | 297 kts | 324° |
| 2026-04-27 07:39 | 43.12806 | 16.36098 | 11715 ft | 297 kts | 324° |
| 2026-04-27 07:39 | 43.14483 | 16.34454 | 11271 ft | 298 kts | 324° |
| 2026-04-27 07:39 | 43.16174 | 16.32797 | 10807 ft | 299 kts | 324° |
| 2026-04-27 07:39 | 43.17839 | 16.31112 | 10390 ft | 299 kts | 318° |
| 2026-04-27 07:40 | 43.19208 | 16.28988 | 10042 ft | 296 kts | 303° |
| 2026-04-27 07:40 | 43.20157 | 16.26506 | 9639 ft | 293 kts | 293° |
| 2026-04-27 07:40 | 43.20982 | 16.23951 | 9205 ft | 292 kts | 293° |
| 2026-04-27 07:40 | 43.21806 | 16.21407 | 8768 ft | 291 kts | 294° |
| 2026-04-27 07:41 | 43.22801 | 16.19038 | 8084 ft | 286 kts | 313° |
| 2026-04-27 07:41 | 43.24415 | 16.17504 | 7365 ft | 283 kts | 340° |
| 2026-04-27 07:41 | 43.26334 | 16.17179 | 6744 ft | 278 kts | 9° |
| 2026-04-27 07:41 | 43.28165 | 16.17970 | 6243 ft | 278 kts | 24° |
| 2026-04-27 07:42 | 43.29957 | 16.19001 | 5757 ft | 281 kts | 24° |
| 2026-04-27 07:42 | 43.31752 | 16.20047 | 5278 ft | 281 kts | 25° |
| 2026-04-27 07:42 | 43.33545 | 16.21108 | 4819 ft | 280 kts | 28° |
| 2026-04-27 07:42 | 43.35117 | 16.22535 | 4702 ft | 262 kts | 43° |
| 2026-04-27 07:43 | 43.36436 | 16.24138 | 4622 ft | 246 kts | 44° |
| 2026-04-27 07:43 | 43.37686 | 16.25647 | 4549 ft | 233 kts | 44° |
| 2026-04-27 07:43 | 43.38878 | 16.27085 | 4441 ft | 223 kts | 44° |
| 2026-04-27 07:43 | 43.40038 | 16.28491 | 4217 ft | 225 kts | 44° |
| 2026-04-27 07:44 | 43.41213 | 16.29916 | 3899 ft | 225 kts | 44° |
| 2026-04-27 07:44 | 43.42384 | 16.31338 | 3578 ft | 224 kts | 44° |
| 2026-04-27 07:44 | 43.43536 | 16.32736 | 3272 ft | 216 kts | 44° |
| 2026-04-27 07:44 | 43.44638 | 16.34072 | 3013 ft | 205 kts | 43° |
| 2026-04-27 07:45 | 43.45677 | 16.35333 | 2733 ft | 193 kts | 43° |
| 2026-04-27 07:45 | 43.46651 | 16.36512 | 2461 ft | 178 kts | 43° |
| 2026-04-27 07:45 | 43.47508 | 16.37551 | 2247 ft | 157 kts | 43° |
| 2026-04-27 07:45 | 43.48222 | 16.38519 | 1988 ft | 146 kts | 58° |
| 2026-04-27 07:46 | 43.48832 | 16.39550 | 1890 ft | 138 kts | 43° |
| 2026-04-27 07:46 | 43.49624 | 16.40283 | 1683 ft | 137 kts | 30° |
| 2026-04-27 07:46 | 43.50530 | 16.40733 | 1496 ft | 137 kts | 12° |
| 2026-04-27 07:46 | 43.51481 | 16.40824 | 1421 ft | 138 kts | 356° |
| 2026-04-27 07:47 | 43.52363 | 16.40535 | 1367 ft | 139 kts | 339° |
| 2026-04-27 07:47 | 43.53228 | 16.39939 | 1240 ft | 139 kts | 331° |
| 2026-04-27 07:47 | 43.54022 | 16.39187 | 1055 ft | 139 kts | 320° |
| 2026-04-27 07:47 | 43.54675 | 16.38217 | 881 ft | 138 kts | 304° |
| 2026-04-27 07:48 | 43.55060 | 16.37015 | 723 ft | 136 kts | 286° |
| 2026-04-27 07:48 | 43.55302 | 16.35748 | 743 ft | 137 kts | 283° |
| 2026-04-27 07:48 | 43.55477 | 16.34450 | 738 ft | 138 kts | 275° |
| 2026-04-27 07:48 | 43.55458 | 16.33127 | 628 ft | 138 kts | 258° |
| 2026-04-27 07:49 | 43.55069 | 16.31920 | 332 ft | 139 kts | 233° |
| 2026-04-27 07:49 | 43.54492 | 16.30869 | 92 ft | 136 kts | 230° |
| 2026-04-27 07:49 | 43.53964 | 16.29927 | 73 ft | 103 kts | 233° |
| 2026-04-27 07:49 | 43.53635 | 16.29330 | 85 ft | 54 kts | 232° |
| 2026-04-27 07:50 | 43.53495 | 16.29076 | 87 ft | 24 kts | 233° |
| 2026-04-27 07:50 | 43.53400 | 16.28906 | 90 ft | 21 kts | 232° |
| 2026-04-27 07:50 | 43.53312 | 16.28749 | 86 ft | 23 kts | 232° |
| 2026-04-27 07:50 | 43.53209 | 16.28620 | 85 ft | 14 kts | 205° |
| 2026-04-27 07:51 | 43.53217 | 16.28579 | 86 ft | 3 kts | 24° |
| 2026-04-27 07:51 | 43.53253 | 16.28642 | 86 ft | 22 kts | 54° |
| 2026-04-27 07:51 | 43.53361 | 16.28835 | 87 ft | 26 kts | 52° |
| 2026-04-27 07:51 | 43.53473 | 16.29039 | 86 ft | 28 kts | 53° |
| 2026-04-27 07:52 | 43.53596 | 16.29258 | 84 ft | 30 kts | 52° |
| 2026-04-27 07:52 | 43.53694 | 16.29476 | 79 ft | 12 kts | 90° |
| 2026-04-27 07:52 | 43.53694 | 16.29564 | 74 ft | 12 kts | 91° |
| 2026-04-27 07:52 | 43.53680 | 16.29655 | 69 ft | 7 kts | 109° |
| 2026-04-27 07:53 | 43.53653 | 16.29701 | 68 ft | 5 kts | 100° |
| 2026-04-27 07:53 | 43.53658 | 16.29744 | 68 ft | 4 kts | 93° |